PWSweather.com
Personal Weather Stations
Station Observations
DOMINIK666
RadlinPL 44-310

RadlinPL 44-310

Lat: 50.045703, Lon: 18.49303

Elevation: 1036

Station Type: Velleman WS 1080

http://pogodaradlin.pl

Latest ConditionsUpdated 11:55:00 AM GMT+01:01 Sunday, Dec 15, 2019
Currently Today's Max Today's Min Today's Average
Temperature 47.5°F8.6°C 47.5°F8.6°C 40.1°F4.5°C 42.3°F5.7°C
Dew Point 41.0°F5.0°C 41.0°F5.0°C 34.7°F1.5°C 36.4°F2.4°C
Winds 10.0 mph SSE16.1 kmh SSE 19.8 mph -31.9 kmh - - 10.2 mph 16.4 kmh
Wind Gusts 15.9 mph25.6 kmh 24.4 mph39.3 kmh - -
Humidity 78% 86% 74% 80%
Pressure 29.66 in1004.4 mb 29.73 in1006.8 mb 29.61 in1002.7 mb -
Hour Temp Dew Point Humidity Winds Wind Gusts Pressure Precip Precip Rate Daily Precip Total
11:55 AM 47.5°F8.6°C 41.0°F5.0°C 78% 10.0 mph SSE16.1 kmh SSE 15.9 mph25.6 kmh 29.66 in1004.4 mb 0.00 in0.0 mm 0.00 in0.0 mm 0.00 in0.0 mm
11:50 AM 47.3°F8.5°C 40.8°F4.9°C 78% 9.5 mph S15.3 kmh S 15.9 mph25.6 kmh 29.66 in1004.4 mb 0.00 in0.0 mm 0.00 in0.0 mm 0.00 in0.0 mm
11:45 AM 46.9°F8.3°C 40.8°F4.9°C 79% 9.9 mph S15.9 kmh S 14.5 mph23.3 kmh 29.67 in1004.7 mb 0.00 in0.0 mm 0.00 in0.0 mm 0.00 in0.0 mm
11:40 AM 46.8°F8.2°C 40.6°F4.8°C 79% 9.7 mph SSE15.6 kmh SSE 14.5 mph23.3 kmh 29.66 in1004.4 mb 0.00 in0.0 mm 0.00 in0.0 mm 0.00 in0.0 mm
11:35 AM 46.6°F8.1°C 40.4°F4.7°C 79% 10.3 mph S16.6 kmh S 14.5 mph23.3 kmh 29.67 in1004.7 mb 0.00 in0.0 mm 0.00 in0.0 mm 0.00 in0.0 mm
11:30 AM 46.4°F8.0°C 39.9°F4.4°C 78% 12.9 mph S20.8 kmh S 17.4 mph28.0 kmh 29.68 in1005.1 mb 0.00 in0.0 mm 0.00 in0.0 mm 0.00 in0.0 mm
11:25 AM 46.2°F7.9°C 40.1°F4.5°C 79% 11.8 mph S19.0 kmh S 17.4 mph28.0 kmh 29.69 in1005.4 mb 0.00 in0.0 mm 0.00 in0.0 mm 0.00 in0.0 mm
11:20 AM 45.9°F7.7°C 39.4°F4.1°C 78% 9.3 mph S15.0 kmh S 13.0 mph20.9 kmh 29.69 in1005.4 mb 0.00 in0.0 mm 0.00 in0.0 mm 0.00 in0.0 mm
11:15 AM 45.7°F7.6°C 39.2°F4.0°C 78% 8.3 mph S13.4 kmh S 13.0 mph20.9 kmh 29.70 in1005.8 mb 0.00 in0.0 mm 0.00 in0.0 mm 0.00 in0.0 mm
11:10 AM 45.5°F7.5°C 39.0°F3.9°C 78% 6.5 mph S10.5 kmh S 13.0 mph20.9 kmh 29.70 in1005.8 mb 0.00 in0.0 mm 0.00 in0.0 mm 0.00 in0.0 mm
11:05 AM 45.1°F7.3°C 38.4°F3.6°C 77% 5.9 mph SSW9.5 kmh SSW 8.3 mph13.4 kmh 29.70 in1005.8 mb 0.00 in0.0 mm 0.00 in0.0 mm 0.00 in0.0 mm
11:00 AM 45.1°F7.3°C 38.4°F3.6°C 77% 7.1 mph S11.4 kmh S 10.7 mph17.2 kmh 29.70 in1005.8 mb 0.00 in0.0 mm 0.00 in0.0 mm 0.00 in0.0 mm
10:55 AM 45.0°F7.2°C 37.9°F3.3°C 76% 8.4 mph SSE13.5 kmh SSE 13.0 mph20.9 kmh 29.70 in1005.8 mb 0.00 in0.0 mm 0.00 in0.0 mm 0.00 in0.0 mm
10:50 AM 45.0°F7.2°C 37.9°F3.3°C 76% 8.7 mph S14.0 kmh S 13.0 mph20.9 kmh 29.71 in1006.1 mb 0.00 in0.0 mm 0.00 in0.0 mm 0.00 in0.0 mm
10:45 AM 45.1°F7.3°C 37.7°F3.2°C 75% 9.3 mph S15.0 kmh S 14.5 mph23.3 kmh 29.71 in1006.1 mb 0.00 in0.0 mm 0.00 in0.0 mm 0.00 in0.0 mm
10:40 AM 45.1°F7.3°C 37.7°F3.2°C 75% 9.9 mph S15.9 kmh S 14.5 mph23.3 kmh 29.71 in1006.1 mb 0.00 in0.0 mm 0.00 in0.0 mm 0.00 in0.0 mm
10:35 AM 45.3°F7.4°C 37.5°F3.1°C 74% 10.6 mph S17.1 kmh S 15.9 mph25.6 kmh 29.71 in1006.1 mb 0.00 in0.0 mm 0.00 in0.0 mm 0.00 in0.0 mm
10:30 AM 45.3°F7.4°C 37.5°F3.1°C 74% 12.5 mph S20.1 kmh S 15.9 mph25.6 kmh 29.71 in1006.1 mb 0.00 in0.0 mm 0.00 in0.0 mm 0.00 in0.0 mm
10:25 AM 45.3°F7.4°C 37.5°F3.1°C 74% 13.1 mph S21.1 kmh S 15.2 mph24.5 kmh 29.72 in1006.4 mb 0.00 in0.0 mm 0.00 in0.0 mm 0.00 in0.0 mm
10:20 AM 45.1°F7.3°C 37.7°F3.2°C 75% 11.4 mph S18.3 kmh S 15.2 mph24.5 kmh 29.72 in1006.4 mb 0.00 in0.0 mm 0.00 in0.0 mm 0.00 in0.0 mm
10:15 AM 45.1°F7.3°C 37.7°F3.2°C 75% 10.5 mph SSE16.9 kmh SSE 12.1 mph19.5 kmh 29.72 in1006.4 mb 0.00 in0.0 mm 0.00 in0.0 mm 0.00 in0.0 mm
10:10 AM 45.1°F7.3°C 37.7°F3.2°C 75% 10.8 mph SSE17.4 kmh SSE 12.1 mph19.5 kmh 29.73 in1006.8 mb 0.00 in0.0 mm 0.00 in0.0 mm 0.00 in0.0 mm
10:05 AM 45.0°F7.2°C 37.5°F3.1°C 75% 10.8 mph SSE17.4 kmh SSE 13.6 mph21.9 kmh 29.73 in1006.8 mb 0.00 in0.0 mm 0.00 in0.0 mm 0.00 in0.0 mm
10:00 AM 45.0°F7.2°C 37.5°F3.1°C 75% 10.6 mph SSE17.1 kmh SSE 13.6 mph21.9 kmh 29.72 in1006.4 mb 0.00 in0.0 mm 0.00 in0.0 mm 0.00 in0.0 mm
09:55 AM 44.8°F7.1°C 37.3°F2.9°C 75% 10.4 mph SE16.7 kmh SE 13.0 mph20.9 kmh 29.72 in1006.4 mb 0.00 in0.0 mm 0.00 in0.0 mm 0.00 in0.0 mm
09:50 AM 44.6°F7.0°C 37.5°F3.1°C 76% 10.1 mph SE16.3 kmh SE 13.0 mph20.9 kmh 29.72 in1006.4 mb 0.00 in0.0 mm 0.00 in0.0 mm 0.00 in0.0 mm
09:45 AM 44.4°F6.9°C 37.7°F3.2°C 77% 8.0 mph SE12.9 kmh SE 13.0 mph20.9 kmh 29.72 in1006.4 mb 0.00 in0.0 mm 0.00 in0.0 mm 0.00 in0.0 mm
09:40 AM 44.1°F6.7°C 37.6°F3.1°C 78% 6.4 mph SE10.3 kmh SE 8.3 mph13.4 kmh 29.72 in1006.4 mb 0.00 in0.0 mm 0.00 in0.0 mm 0.00 in0.0 mm
09:35 AM 43.5°F6.4°C 37.1°F2.8°C 78% 6.6 mph SE10.6 kmh SE 8.3 mph13.4 kmh 29.72 in1006.4 mb 0.00 in0.0 mm 0.00 in0.0 mm 0.00 in0.0 mm
09:30 AM 43.2°F6.2°C 36.8°F2.7°C 78% 6.9 mph SE11.1 kmh SE 9.8 mph15.8 kmh 29.72 in1006.4 mb 0.00 in0.0 mm 0.00 in0.0 mm 0.00 in0.0 mm
09:25 AM 43.0°F6.1°C 36.6°F2.6°C 78% 7.8 mph S12.6 kmh S 10.7 mph17.2 kmh 29.72 in1006.4 mb 0.00 in0.0 mm 0.00 in0.0 mm 0.00 in0.0 mm
09:20 AM 42.6°F5.9°C 36.6°F2.6°C 79% 8.3 mph SSE13.4 kmh SSE 10.7 mph17.2 kmh 29.72 in1006.4 mb 0.00 in0.0 mm 0.00 in0.0 mm 0.00 in0.0 mm
09:15 AM 42.4°F5.8°C 36.4°F2.4°C 79% 8.4 mph SE13.5 kmh SE 10.7 mph17.2 kmh 29.72 in1006.4 mb 0.00 in0.0 mm 0.00 in0.0 mm 0.00 in0.0 mm
09:10 AM 42.3°F5.7°C 36.2°F2.3°C 79% 8.5 mph S13.7 kmh S 9.2 mph14.8 kmh 29.72 in1006.4 mb 0.00 in0.0 mm 0.00 in0.0 mm 0.00 in0.0 mm
09:05 AM 42.1°F5.6°C 36.0°F2.2°C 79% 8.2 mph SSE13.2 kmh SSE 10.7 mph17.2 kmh 29.73 in1006.8 mb 0.00 in0.0 mm 0.00 in0.0 mm 0.00 in0.0 mm
09:00 AM 42.1°F5.6°C 36.0°F2.2°C 79% 8.6 mph SE13.8 kmh SE 10.7 mph17.2 kmh 29.73 in1006.8 mb 0.00 in0.0 mm 0.00 in0.0 mm 0.00 in0.0 mm
08:55 AM 42.1°F5.6°C 36.0°F2.2°C 79% 9.4 mph SSE15.1 kmh SSE 13.0 mph20.9 kmh 29.72 in1006.4 mb 0.00 in0.0 mm 0.00 in0.0 mm 0.00 in0.0 mm
08:50 AM 42.1°F5.6°C 36.0°F2.2°C 79% 9.2 mph SSE14.8 kmh SSE 13.0 mph20.9 kmh 29.72 in1006.4 mb 0.00 in0.0 mm 0.00 in0.0 mm 0.00 in0.0 mm
08:45 AM 42.1°F5.6°C 36.0°F2.2°C 79% 8.3 mph SSE13.4 kmh SSE 10.7 mph17.2 kmh 29.73 in1006.8 mb 0.00 in0.0 mm 0.00 in0.0 mm 0.00 in0.0 mm
08:40 AM 42.1°F5.6°C 36.0°F2.2°C 79% 8.2 mph SSE13.2 kmh SSE 11.4 mph18.3 kmh 29.73 in1006.8 mb 0.00 in0.0 mm 0.00 in0.0 mm 0.00 in0.0 mm
08:35 AM 42.1°F5.6°C 36.0°F2.2°C 79% 9.0 mph S14.5 kmh S 11.4 mph18.3 kmh 29.73 in1006.8 mb 0.00 in0.0 mm 0.00 in0.0 mm 0.00 in0.0 mm
08:30 AM 41.9°F5.5°C 35.9°F2.2°C 79% 9.1 mph S14.6 kmh S 11.4 mph18.3 kmh 29.73 in1006.8 mb 0.00 in0.0 mm 0.00 in0.0 mm 0.00 in0.0 mm
08:25 AM 41.9°F5.5°C 35.9°F2.2°C 79% 8.2 mph S13.2 kmh S 9.8 mph15.8 kmh 29.73 in1006.8 mb 0.00 in0.0 mm 0.00 in0.0 mm 0.00 in0.0 mm
08:20 AM 41.9°F5.5°C 35.9°F2.2°C 79% 7.7 mph SSE12.4 kmh SSE 9.8 mph15.8 kmh 29.73 in1006.8 mb 0.00 in0.0 mm 0.00 in0.0 mm 0.00 in0.0 mm
08:15 AM 41.7°F5.4°C 35.7°F2.1°C 79% 6.0 mph S9.7 kmh S 9.8 mph15.8 kmh 29.73 in1006.8 mb 0.00 in0.0 mm 0.00 in0.0 mm 0.00 in0.0 mm
08:10 AM 41.7°F5.4°C 35.7°F2.1°C 79% 4.5 mph S7.2 kmh S 5.4 mph8.7 kmh 29.73 in1006.8 mb 0.00 in0.0 mm 0.00 in0.0 mm 0.00 in0.0 mm
08:05 AM 41.9°F5.5°C 35.9°F2.2°C 79% 5.9 mph S9.5 kmh S 11.4 mph18.3 kmh 29.73 in1006.8 mb 0.00 in0.0 mm 0.00 in0.0 mm 0.00 in0.0 mm
08:00 AM 41.9°F5.5°C 35.9°F2.2°C 79% 7.7 mph S12.4 kmh S 11.4 mph18.3 kmh 29.73 in1006.8 mb 0.00 in0.0 mm 0.00 in0.0 mm 0.00 in0.0 mm
07:55 AM 41.9°F5.5°C 35.9°F2.2°C 79% 9.2 mph S14.8 kmh S 13.0 mph20.9 kmh 29.73 in1006.8 mb 0.00 in0.0 mm 0.00 in0.0 mm 0.00 in0.0 mm
07:50 AM 42.1°F5.6°C 36.0°F2.2°C 79% 10.1 mph S16.3 kmh S 14.5 mph23.3 kmh 29.73 in1006.8 mb 0.00 in0.0 mm 0.00 in0.0 mm 0.00 in0.0 mm
07:45 AM 42.1°F5.6°C 36.0°F2.2°C 79% 11.4 mph S18.3 kmh S 15.2 mph24.5 kmh 29.73 in1006.8 mb 0.00 in0.0 mm 0.00 in0.0 mm 0.00 in0.0 mm
07:40 AM 42.1°F5.6°C 36.0°F2.2°C 79% 12.4 mph S20.0 kmh S 15.2 mph24.5 kmh 29.73 in1006.8 mb 0.00 in0.0 mm 0.00 in0.0 mm 0.00 in0.0 mm
07:35 AM 42.1°F5.6°C 36.0°F2.2°C 79% 11.3 mph SSE18.2 kmh SSE 13.0 mph20.9 kmh 29.73 in1006.8 mb 0.00 in0.0 mm 0.00 in0.0 mm 0.00 in0.0 mm
07:30 AM 42.1°F5.6°C 36.0°F2.2°C 79% 10.8 mph SSE17.4 kmh SSE 13.0 mph20.9 kmh 29.73 in1006.8 mb 0.00 in0.0 mm 0.00 in0.0 mm 0.00 in0.0 mm
07:25 AM 41.9°F5.5°C 35.9°F2.2°C 79% 10.1 mph SSE16.3 kmh SSE 13.0 mph20.9 kmh 29.73 in1006.8 mb 0.00 in0.0 mm 0.00 in0.0 mm 0.00 in0.0 mm
07:20 AM 41.9°F5.5°C 35.9°F2.2°C 79% 9.1 mph S14.6 kmh S 12.1 mph19.5 kmh 29.73 in1006.8 mb 0.00 in0.0 mm 0.00 in0.0 mm 0.00 in0.0 mm
07:15 AM 41.9°F5.5°C 35.9°F2.2°C 79% 9.1 mph S14.6 kmh S 10.7 mph17.2 kmh 29.72 in1006.4 mb 0.00 in0.0 mm 0.00 in0.0 mm 0.00 in0.0 mm
07:10 AM 41.9°F5.5°C 35.9°F2.2°C 79% 9.5 mph SSE15.3 kmh SSE 10.7 mph17.2 kmh 29.73 in1006.8 mb 0.00 in0.0 mm 0.00 in0.0 mm 0.00 in0.0 mm
07:05 AM 41.5°F5.3°C 35.5°F1.9°C 79% 9.5 mph SSE15.3 kmh SSE 12.1 mph19.5 kmh 29.72 in1006.4 mb 0.00 in0.0 mm 0.00 in0.0 mm 0.00 in0.0 mm
07:00 AM 41.5°F5.3°C 35.5°F1.9°C 79% 8.2 mph S13.2 kmh S 12.1 mph19.5 kmh 29.73 in1006.8 mb 0.00 in0.0 mm 0.00 in0.0 mm 0.00 in0.0 mm
06:55 AM 41.4°F5.2°C 35.7°F2.1°C 80% 8.2 mph S13.2 kmh S 11.4 mph18.3 kmh 29.73 in1006.8 mb 0.00 in0.0 mm 0.00 in0.0 mm 0.00 in0.0 mm
06:50 AM 41.4°F5.2°C 35.7°F2.1°C 80% 7.8 mph S12.6 kmh S 11.4 mph18.3 kmh 29.73 in1006.8 mb 0.00 in0.0 mm 0.00 in0.0 mm 0.00 in0.0 mm
06:45 AM 41.2°F5.1°C 35.5°F1.9°C 80% 6.6 mph S10.6 kmh S 9.2 mph14.8 kmh 29.73 in1006.8 mb 0.00 in0.0 mm 0.00 in0.0 mm 0.00 in0.0 mm
06:40 AM 41.0°F5.0°C 35.6°F2.0°C 81% 7.1 mph S11.4 kmh S 9.8 mph15.8 kmh 29.72 in1006.4 mb 0.00 in0.0 mm 0.00 in0.0 mm 0.00 in0.0 mm
06:35 AM 40.8°F4.9°C 35.5°F1.9°C 81% 7.5 mph S12.1 kmh S 9.8 mph15.8 kmh 29.73 in1006.8 mb 0.00 in0.0 mm 0.00 in0.0 mm 0.00 in0.0 mm
06:30 AM 40.5°F4.7°C 35.1°F1.7°C 81% 6.5 mph S10.5 kmh S 9.2 mph14.8 kmh 29.73 in1006.8 mb 0.00 in0.0 mm 0.00 in0.0 mm 0.00 in0.0 mm
06:25 AM 40.5°F4.7°C 35.1°F1.7°C 81% 5.9 mph S9.5 kmh S 8.3 mph13.4 kmh 29.73 in1006.8 mb 0.00 in0.0 mm 0.00 in0.0 mm 0.00 in0.0 mm
06:20 AM 40.3°F4.6°C 34.9°F1.6°C 81% 6.0 mph S9.7 kmh S 8.3 mph13.4 kmh 29.73 in1006.8 mb 0.00 in0.0 mm 0.00 in0.0 mm 0.00 in0.0 mm
06:15 AM 40.5°F4.7°C 35.1°F1.7°C 81% 6.3 mph SSW10.1 kmh SSW 8.3 mph13.4 kmh 29.73 in1006.8 mb 0.00 in0.0 mm 0.00 in0.0 mm 0.00 in0.0 mm
06:10 AM 40.5°F4.7°C 35.1°F1.7°C 81% 7.6 mph SW12.2 kmh SW 8.3 mph13.4 kmh 29.73 in1006.8 mb 0.00 in0.0 mm 0.00 in0.0 mm 0.00 in0.0 mm
06:05 AM 40.1°F4.5°C 34.7°F1.5°C 81% 8.0 mph SW12.9 kmh SW 9.2 mph14.8 kmh 29.73 in1006.8 mb 0.00 in0.0 mm 0.00 in0.0 mm 0.00 in0.0 mm
06:00 AM 40.1°F4.5°C 34.7°F1.5°C 81% 6.4 mph SW10.3 kmh SW 9.2 mph14.8 kmh 29.73 in1006.8 mb 0.00 in0.0 mm 0.00 in0.0 mm 0.00 in0.0 mm
05:55 AM 40.1°F4.5°C 34.7°F1.5°C 81% 5.3 mph SSW8.5 kmh SSW 7.6 mph12.2 kmh 29.73 in1006.8 mb 0.00 in0.0 mm 0.00 in0.0 mm 0.00 in0.0 mm
05:50 AM 40.3°F4.6°C 34.9°F1.6°C 81% 6.3 mph SW10.1 kmh SW 8.3 mph13.4 kmh 29.73 in1006.8 mb 0.00 in0.0 mm 0.00 in0.0 mm 0.00 in0.0 mm
05:45 AM 40.3°F4.6°C 34.9°F1.6°C 81% 5.9 mph SW9.5 kmh SW 8.3 mph13.4 kmh 29.73 in1006.8 mb 0.00 in0.0 mm 0.00 in0.0 mm 0.00 in0.0 mm
05:40 AM 40.3°F4.6°C 34.9°F1.6°C 81% 5.0 mph WSW8.0 kmh WSW 6.9 mph11.1 kmh 29.73 in1006.8 mb 0.00 in0.0 mm 0.00 in0.0 mm 0.00 in0.0 mm
05:35 AM 40.5°F4.7°C 35.1°F1.7°C 81% 5.7 mph SW9.2 kmh SW 7.6 mph12.2 kmh 29.72 in1006.4 mb 0.00 in0.0 mm 0.00 in0.0 mm 0.00 in0.0 mm
05:30 AM 40.6°F4.8°C 35.3°F1.8°C 81% 5.9 mph SW9.5 kmh SW 7.6 mph12.2 kmh 29.73 in1006.8 mb 0.00 in0.0 mm 0.00 in0.0 mm 0.00 in0.0 mm
05:25 AM 40.6°F4.8°C 35.3°F1.8°C 81% 5.0 mph SW8.0 kmh SW 6.9 mph11.1 kmh 29.73 in1006.8 mb 0.00 in0.0 mm 0.00 in0.0 mm 0.00 in0.0 mm
05:20 AM 40.6°F4.8°C 35.0°F1.7°C 80% 5.0 mph WSW8.0 kmh WSW 8.3 mph13.4 kmh 29.73 in1006.8 mb 0.00 in0.0 mm 0.00 in0.0 mm 0.00 in0.0 mm
05:15 AM 41.0°F5.0°C 35.3°F1.8°C 80% 7.0 mph WSW11.3 kmh WSW 9.2 mph14.8 kmh 29.73 in1006.8 mb 0.00 in0.0 mm 0.00 in0.0 mm 0.00 in0.0 mm
05:10 AM 41.0°F5.0°C 35.3°F1.8°C 80% 8.1 mph WSW13.0 kmh WSW 9.2 mph14.8 kmh 29.73 in1006.8 mb 0.00 in0.0 mm 0.00 in0.0 mm 0.00 in0.0 mm
05:05 AM 41.2°F5.1°C 35.5°F1.9°C 80% 7.3 mph SW11.7 kmh SW 8.3 mph13.4 kmh 29.72 in1006.4 mb 0.00 in0.0 mm 0.00 in0.0 mm 0.00 in0.0 mm
05:00 AM 41.2°F5.1°C 35.5°F1.9°C 80% 6.6 mph SW10.6 kmh SW 9.8 mph15.8 kmh 29.72 in1006.4 mb 0.00 in0.0 mm 0.00 in0.0 mm 0.00 in0.0 mm
04:55 AM 41.2°F5.1°C 35.2°F1.8°C 79% 7.6 mph WSW12.2 kmh WSW 10.7 mph17.2 kmh 29.72 in1006.4 mb 0.00 in0.0 mm 0.00 in0.0 mm 0.00 in0.0 mm
04:50 AM 41.4°F5.2°C 35.3°F1.8°C 79% 8.3 mph W13.4 kmh W 10.7 mph17.2 kmh 29.73 in1006.8 mb 0.00 in0.0 mm 0.00 in0.0 mm 0.00 in0.0 mm
04:45 AM 41.4°F5.2°C 35.3°F1.8°C 79% 8.0 mph WSW12.9 kmh WSW 9.8 mph15.8 kmh 29.72 in1006.4 mb 0.00 in0.0 mm 0.00 in0.0 mm 0.00 in0.0 mm
04:40 AM 41.4°F5.2°C 35.3°F1.8°C 79% 9.1 mph SW14.6 kmh SW 13.6 mph21.9 kmh 29.72 in1006.4 mb 0.00 in0.0 mm 0.00 in0.0 mm 0.00 in0.0 mm
04:35 AM 41.4°F5.2°C 35.3°F1.8°C 79% 9.9 mph SW15.9 kmh SW 13.6 mph21.9 kmh 29.71 in1006.1 mb 0.00 in0.0 mm 0.00 in0.0 mm 0.00 in0.0 mm
04:30 AM 41.4°F5.2°C 35.3°F1.8°C 79% 9.9 mph SW15.9 kmh SW 14.5 mph23.3 kmh 29.71 in1006.1 mb 0.00 in0.0 mm 0.00 in0.0 mm 0.00 in0.0 mm
04:25 AM 41.2°F5.1°C 35.2°F1.8°C 79% 9.8 mph SSW15.8 kmh SSW 14.5 mph23.3 kmh 29.70 in1005.8 mb 0.00 in0.0 mm 0.00 in0.0 mm 0.00 in0.0 mm
04:20 AM 41.2°F5.1°C 35.2°F1.8°C 79% 9.8 mph S15.8 kmh S 15.9 mph25.6 kmh 29.70 in1005.8 mb 0.00 in0.0 mm 0.00 in0.0 mm 0.00 in0.0 mm
04:15 AM 41.4°F5.2°C 35.3°F1.8°C 79% 8.3 mph SW13.4 kmh SW 15.9 mph25.6 kmh 29.70 in1005.8 mb 0.00 in0.0 mm 0.00 in0.0 mm 0.00 in0.0 mm
04:10 AM 41.4°F5.2°C 35.0°F1.7°C 78% 6.2 mph SW10.0 kmh SW 8.3 mph13.4 kmh 29.69 in1005.4 mb 0.00 in0.0 mm 0.00 in0.0 mm 0.00 in0.0 mm
04:05 AM 41.9°F5.5°C 35.6°F2.0°C 78% 8.7 mph SSW14.0 kmh SSW 17.4 mph28.0 kmh 29.68 in1005.1 mb 0.00 in0.0 mm 0.00 in0.0 mm 0.00 in0.0 mm
04:00 AM 41.9°F5.5°C 35.6°F2.0°C 78% 12.8 mph S20.6 kmh S 18.3 mph29.5 kmh 29.68 in1005.1 mb 0.00 in0.0 mm 0.00 in0.0 mm 0.00 in0.0 mm
03:55 AM 41.9°F5.5°C 35.6°F2.0°C 78% 14.1 mph S22.7 kmh S 19.0 mph30.6 kmh 29.68 in1005.1 mb 0.00 in0.0 mm 0.00 in0.0 mm 0.00 in0.0 mm
03:50 AM 41.9°F5.5°C 35.6°F2.0°C 78% 13.2 mph S21.2 kmh S 19.0 mph30.6 kmh 29.68 in1005.1 mb 0.00 in0.0 mm 0.00 in0.0 mm 0.00 in0.0 mm
03:45 AM 41.9°F5.5°C 35.6°F2.0°C 78% 13.6 mph S21.9 kmh S 24.4 mph39.3 kmh 29.68 in1005.1 mb 0.00 in0.0 mm 0.00 in0.0 mm 0.00 in0.0 mm
03:40 AM 41.9°F5.5°C 35.6°F2.0°C 78% 14.0 mph SSW22.5 kmh SSW 24.4 mph39.3 kmh 29.68 in1005.1 mb 0.00 in0.0 mm 0.00 in0.0 mm 0.00 in0.0 mm
03:35 AM 41.9°F5.5°C 35.9°F2.2°C 79% 15.0 mph SW24.1 kmh SW 20.6 mph33.2 kmh 29.68 in1005.1 mb 0.00 in0.0 mm 0.00 in0.0 mm 0.00 in0.0 mm
03:30 AM 41.9°F5.5°C 35.9°F2.2°C 79% 15.8 mph SSW25.4 kmh SSW 20.6 mph33.2 kmh 29.67 in1004.7 mb 0.00 in0.0 mm 0.00 in0.0 mm 0.00 in0.0 mm
03:25 AM 41.7°F5.4°C 35.7°F2.1°C 79% 16.2 mph S26.1 kmh S 22.1 mph35.6 kmh 29.67 in1004.7 mb 0.00 in0.0 mm 0.00 in0.0 mm 0.00 in0.0 mm
03:20 AM 41.5°F5.3°C 35.5°F1.9°C 79% 16.9 mph S27.2 kmh S 22.1 mph35.6 kmh 29.67 in1004.7 mb 0.00 in0.0 mm 0.00 in0.0 mm 0.00 in0.0 mm
03:15 AM 41.5°F5.3°C 35.5°F1.9°C 79% 15.2 mph SSW24.5 kmh SSW 22.1 mph35.6 kmh 29.66 in1004.4 mb 0.00 in0.0 mm 0.00 in0.0 mm 0.00 in0.0 mm
03:10 AM 41.4°F5.2°C 35.3°F1.8°C 79% 12.9 mph SW20.8 kmh SW 21.3 mph34.3 kmh 29.66 in1004.4 mb 0.00 in0.0 mm 0.00 in0.0 mm 0.00 in0.0 mm
03:05 AM 41.2°F5.1°C 35.5°F1.9°C 80% 13.0 mph S20.9 kmh S 19.7 mph31.7 kmh 29.66 in1004.4 mb 0.00 in0.0 mm 0.00 in0.0 mm 0.00 in0.0 mm
03:00 AM 41.2°F5.1°C 35.5°F1.9°C 80% 13.8 mph S22.2 kmh S 19.7 mph31.7 kmh 29.66 in1004.4 mb 0.00 in0.0 mm 0.00 in0.0 mm 0.00 in0.0 mm
02:55 AM 41.4°F5.2°C 35.7°F2.1°C 80% 12.1 mph SSW19.5 kmh SSW 17.4 mph28.0 kmh 29.65 in1004.1 mb 0.00 in0.0 mm 0.00 in0.0 mm 0.00 in0.0 mm
02:50 AM 41.4°F5.2°C 35.7°F2.1°C 80% 11.9 mph S19.2 kmh S 16.8 mph27.0 kmh 29.65 in1004.1 mb 0.00 in0.0 mm 0.00 in0.0 mm 0.00 in0.0 mm
02:45 AM 41.4°F5.2°C 35.7°F2.1°C 80% 12.8 mph S20.6 kmh S 16.8 mph27.0 kmh 29.65 in1004.1 mb 0.00 in0.0 mm 0.00 in0.0 mm 0.00 in0.0 mm
02:40 AM 41.5°F5.3°C 35.8°F2.1°C 80% 13.4 mph S21.6 kmh S 19.0 mph30.6 kmh 29.65 in1004.1 mb 0.00 in0.0 mm 0.00 in0.0 mm 0.00 in0.0 mm
02:35 AM 41.7°F5.4°C 36.0°F2.2°C 80% 15.4 mph SSW24.8 kmh SSW 24.4 mph39.3 kmh 29.65 in1004.1 mb 0.00 in0.0 mm 0.00 in0.0 mm 0.00 in0.0 mm
02:30 AM 41.7°F5.4°C 36.0°F2.2°C 80% 16.0 mph SSW25.7 kmh SSW 24.4 mph39.3 kmh 29.65 in1004.1 mb 0.00 in0.0 mm 0.00 in0.0 mm 0.00 in0.0 mm
02:25 AM 41.7°F5.4°C 36.0°F2.2°C 80% 13.9 mph S22.4 kmh S 20.6 mph33.2 kmh 29.65 in1004.1 mb 0.00 in0.0 mm 0.00 in0.0 mm 0.00 in0.0 mm
02:20 AM 41.5°F5.3°C 35.8°F2.1°C 80% 12.2 mph SSE19.6 kmh SSE 17.4 mph28.0 kmh 29.65 in1004.1 mb 0.00 in0.0 mm 0.00 in0.0 mm 0.00 in0.0 mm
02:15 AM 41.7°F5.4°C 36.0°F2.2°C 80% 15.4 mph S24.8 kmh S 21.3 mph34.3 kmh 29.65 in1004.1 mb 0.00 in0.0 mm 0.00 in0.0 mm 0.00 in0.0 mm
02:10 AM 41.7°F5.4°C 36.0°F2.2°C 80% 19.8 mph S31.9 kmh S 21.3 mph34.3 kmh 29.63 in1003.4 mb 0.00 in0.0 mm 0.00 in0.0 mm 0.00 in0.0 mm
02:05 AM 41.9°F5.5°C 36.5°F2.5°C 81% 17.8 mph S28.6 kmh S 21.3 mph34.3 kmh 29.64 in1003.7 mb 0.00 in0.0 mm 0.00 in0.0 mm 0.00 in0.0 mm
02:00 AM 41.9°F5.5°C 36.5°F2.5°C 81% 13.0 mph S20.9 kmh S 21.3 mph34.3 kmh 29.63 in1003.4 mb 0.00 in0.0 mm 0.00 in0.0 mm 0.00 in0.0 mm
01:55 AM 42.1°F5.6°C 36.7°F2.6°C 81% 13.9 mph S22.4 kmh S 22.1 mph35.6 kmh 29.63 in1003.4 mb 0.00 in0.0 mm 0.00 in0.0 mm 0.00 in0.0 mm
01:50 AM 42.1°F5.6°C 36.7°F2.6°C 81% 15.2 mph S24.5 kmh S 22.1 mph35.6 kmh 29.63 in1003.4 mb 0.00 in0.0 mm 0.00 in0.0 mm 0.00 in0.0 mm
01:45 AM 42.1°F5.6°C 36.7°F2.6°C 81% 13.9 mph SSE22.4 kmh SSE 19.0 mph30.6 kmh 29.63 in1003.4 mb 0.00 in0.0 mm 0.00 in0.0 mm 0.00 in0.0 mm
01:40 AM 42.1°F5.6°C 36.7°F2.6°C 81% 15.7 mph SSE25.3 kmh SSE 20.6 mph33.2 kmh 29.62 in1003.0 mb 0.00 in0.0 mm 0.00 in0.0 mm 0.00 in0.0 mm
01:35 AM 42.1°F5.6°C 37.0°F2.8°C 82% 17.1 mph SSE27.5 kmh SSE 20.6 mph33.2 kmh 29.62 in1003.0 mb 0.00 in0.0 mm 0.00 in0.0 mm 0.00 in0.0 mm
01:30 AM 41.9°F5.5°C 36.8°F2.7°C 82% 15.4 mph S24.8 kmh S 18.3 mph29.5 kmh 29.62 in1003.0 mb 0.00 in0.0 mm 0.00 in0.0 mm 0.00 in0.0 mm
01:25 AM 41.5°F5.3°C 36.5°F2.5°C 82% 13.1 mph SSW21.1 kmh SSW 17.4 mph28.0 kmh 29.62 in1003.0 mb 0.00 in0.0 mm 0.00 in0.0 mm 0.00 in0.0 mm
01:20 AM 43.3°F6.3°C 38.5°F3.6°C 83% 12.9 mph S20.8 kmh S 23.5 mph37.8 kmh 29.61 in1002.7 mb 0.00 in0.0 mm 0.00 in0.0 mm 0.00 in0.0 mm
01:15 AM 41.5°F5.3°C 36.8°F2.7°C 83% 13.3 mph S21.4 kmh S 23.5 mph37.8 kmh 29.61 in1002.7 mb 0.00 in0.0 mm 0.00 in0.0 mm 0.00 in0.0 mm
01:10 AM 41.4°F5.2°C 36.6°F2.6°C 83% 11.9 mph S19.2 kmh S 13.6 mph21.9 kmh 29.61 in1002.7 mb 0.00 in0.0 mm 0.00 in0.0 mm 0.00 in0.0 mm
01:05 AM 41.2°F5.1°C 36.7°F2.6°C 84% 12.1 mph S19.5 kmh S 18.3 mph29.5 kmh 29.61 in1002.7 mb 0.00 in0.0 mm 0.00 in0.0 mm 0.00 in0.0 mm
01:00 AM 41.2°F5.1°C 36.7°F2.6°C 84% 13.4 mph S21.6 kmh S 20.6 mph33.2 kmh 29.61 in1002.7 mb 0.00 in0.0 mm 0.00 in0.0 mm 0.00 in0.0 mm
12:55 AM 41.2°F5.1°C 36.7°F2.6°C 84% 13.7 mph S22.0 kmh S 20.6 mph33.2 kmh 29.62 in1003.0 mb 0.00 in0.0 mm 0.00 in0.0 mm 0.00 in0.0 mm
12:50 AM 41.0°F5.0°C 36.5°F2.5°C 84% 12.8 mph S20.6 kmh S 20.6 mph33.2 kmh 29.61 in1002.7 mb 0.00 in0.0 mm 0.00 in0.0 mm 0.00 in0.0 mm
12:45 AM 41.0°F5.0°C 36.5°F2.5°C 84% 13.7 mph S22.0 kmh S 20.6 mph33.2 kmh 29.62 in1003.0 mb 0.00 in0.0 mm 0.00 in0.0 mm 0.00 in0.0 mm
12:40 AM 40.8°F4.9°C 36.4°F2.4°C 84% 12.1 mph S19.5 kmh S 19.7 mph31.7 kmh 29.61 in1002.7 mb 0.00 in0.0 mm 0.00 in0.0 mm 0.00 in0.0 mm
12:35 AM 40.8°F4.9°C 36.4°F2.4°C 84% 11.2 mph S18.0 kmh S 14.5 mph23.3 kmh 29.62 in1003.0 mb 0.00 in0.0 mm 0.00 in0.0 mm 0.00 in0.0 mm
12:30 AM 40.8°F4.9°C 36.4°F2.4°C 84% 11.7 mph S18.8 kmh S 15.2 mph24.5 kmh 29.61 in1002.7 mb 0.00 in0.0 mm 0.00 in0.0 mm 0.00 in0.0 mm
12:25 AM 40.8°F4.9°C 36.7°F2.6°C 85% 10.2 mph SSE16.4 kmh SSE 15.2 mph24.5 kmh 29.62 in1003.0 mb 0.00 in0.0 mm 0.00 in0.0 mm 0.00 in0.0 mm
12:20 AM 40.6°F4.8°C 36.5°F2.5°C 85% 9.9 mph S15.9 kmh S 12.1 mph19.5 kmh 29.61 in1002.7 mb 0.00 in0.0 mm 0.00 in0.0 mm 0.00 in0.0 mm
12:15 AM 40.6°F4.8°C 36.5°F2.5°C 85% 11.3 mph S18.2 kmh S 13.6 mph21.9 kmh 29.62 in1003.0 mb 0.00 in0.0 mm 0.00 in0.0 mm 0.00 in0.0 mm
12:10 AM 40.5°F4.7°C 36.3°F2.4°C 85% 12.3 mph SE19.8 kmh SE 13.6 mph21.9 kmh 29.61 in1002.7 mb 0.00 in0.0 mm 0.00 in0.0 mm 0.00 in0.0 mm
12:05 AM 40.5°F4.7°C 36.6°F2.6°C 86% 12.1 mph SE19.5 kmh SE 13.6 mph21.9 kmh 29.62 in1003.0 mb 0.00 in0.0 mm 0.00 in0.0 mm 0.00 in0.0 mm
12:00 AM 40.5°F4.7°C 36.6°F2.6°C 86% 10.5 mph SE16.9 kmh SE 13.6 mph21.9 kmh 29.61 in1002.7 mb 0.00 in0.0 mm 0.00 in0.0 mm 0.00 in0.0 mm